Maxton, North Carolina
Current Conditions -  °F | °C
As of 12:52 AM on Monday 26 Jan 2015 (Local Time) from KMEB Reporting Station
Clear Clear  
Wind Chill: 37°   Ceiling: Unl
Heat Index: 42°   Visibility: 10mi
Dew Point: 37°   Wind: 8mph
Humidity: 82%   Direction: 200°SSW
Pressure: 29.77"   Gusts: NA
Location:  34.74°N, 79.35°W
Report Text: KMEB 260552Z AUTO 20007KT 10SM CLR 06/03 A2977 RMK AO2 SLP080 T00560028 10083 20050 58027
Loading
Personal Weather Stations






























Interactive Weather Map New forecast layout! Learn more

10-Day Weather Forecast

Advertisements
Track Severe Weather on mobile